createdAt,value
2018-09-01T00:01:44.325Z,15.13
2018-09-01T00:04:11.600Z,15.17
2018-09-01T00:06:38.970Z,15.19
2018-09-01T00:09:06.800Z,15.16
2018-09-01T00:11:34.076Z,15.16
2018-09-01T00:14:01.417Z,15.13
2018-09-01T00:16:28.641Z,15.07
2018-09-01T00:18:55.912Z,15.03
2018-09-01T00:21:23.197Z,15.13
2018-09-01T00:23:50.444Z,15.07
2018-09-01T00:26:17.673Z,15.03
2018-09-01T00:28:45.015Z,15.05
2018-09-01T00:31:12.429Z,15.11
2018-09-01T00:33:39.661Z,15.15
2018-09-01T00:36:07.022Z,15.18
2018-09-01T00:38:39.999Z,15.11
2018-09-01T00:41:07.282Z,15.17
2018-09-01T00:43:34.621Z,15.17
2018-09-01T00:46:01.899Z,15.17
2018-09-01T00:48:29.184Z,15.18
2018-09-01T00:50:56.432Z,15.23
2018-09-01T00:53:23.770Z,15.26
2018-09-01T00:55:51.136Z,15.26
2018-09-01T00:58:18.442Z,15.25
2018-09-01T01:00:45.768Z,15.25
2018-09-01T01:03:13.200Z,15.27
2018-09-01T01:05:40.498Z,15.28
2018-09-01T01:08:07.793Z,15.20
2018-09-01T01:10:35.099Z,15.16
2018-09-01T01:13:02.299Z,15.11
2018-09-01T01:15:29.665Z,15.09
2018-09-01T01:17:56.998Z,15.05
2018-09-01T01:20:24.374Z,14.97
2018-09-01T01:22:51.731Z,14.96
2018-09-01T01:25:19.047Z,14.96
2018-09-01T01:27:46.302Z,14.97
2018-09-01T01:30:13.593Z,14.94
2018-09-01T01:32:40.930Z,14.89
2018-09-01T01:35:08.372Z,14.95
2018-09-01T01:37:36.155Z,15.00
2018-09-01T01:40:04.347Z,15.03
2018-09-01T01:42:31.931Z,15.05
2018-09-01T01:44:59.223Z,15.03
2018-09-01T01:47:26.510Z,14.98
2018-09-01T01:49:53.800Z,15.01
2018-09-01T01:52:21.130Z,14.97
2018-09-01T01:54:48.615Z,14.88
2018-09-01T01:57:16.015Z,14.85
2018-09-01T01:59:43.357Z,14.83
2018-09-01T02:02:10.667Z,14.79
2018-09-01T02:04:38.160Z,14.75
2018-09-01T02:07:05.470Z,14.78
2018-09-01T02:09:32.869Z,14.85
2018-09-01T02:12:00.141Z,14.91
2018-09-01T02:14:27.472Z,14.94
2018-09-01T02:16:54.860Z,14.94
2018-09-01T02:19:22.098Z,14.90
2018-09-01T02:21:49.408Z,14.94
2018-09-01T02:24:16.710Z,14.94
2018-09-01T02:26:44.003Z,14.86
2018-09-01T02:29:11.400Z,14.76
2018-09-01T02:31:38.775Z,14.81
2018-09-01T02:34:06.079Z,14.79
2018-09-01T02:36:33.335Z,14.78
2018-09-01T02:39:00.611Z,14.75
2018-09-01T02:41:28.001Z,14.74
2018-09-01T02:43:55.477Z,14.79
2018-09-01T02:46:22.885Z,14.73
2018-09-01T02:48:50.222Z,14.62
2018-09-01T02:51:17.515Z,14.62
2018-09-01T02:53:44.782Z,14.68
2018-09-01T02:56:12.084Z,14.69
2018-09-01T02:58:39.351Z,14.65
2018-09-01T03:01:12.314Z,14.71
2018-09-01T03:03:39.600Z,14.64
2018-09-01T03:06:07.416Z,14.62
2018-09-01T03:08:34.776Z,14.55
2018-09-01T03:11:02.090Z,14.54
2018-09-01T03:13:29.471Z,14.50
2018-09-01T03:15:56.779Z,14.47
2018-09-01T03:18:24.070Z,14.45
2018-09-01T03:20:51.491Z,14.50
2018-09-01T03:23:18.714Z,14.48
2018-09-01T03:25:46.009Z,14.44
2018-09-01T03:28:13.301Z,14.31
2018-09-01T03:30:40.578Z,14.23
2018-09-01T03:33:07.815Z,14.19
2018-09-01T03:35:35.107Z,14.15
2018-09-01T03:38:02.342Z,14.10
2018-09-01T03:40:29.702Z,14.07
2018-09-01T03:42:56.946Z,14.09
2018-09-01T03:45:24.157Z,14.07
2018-09-01T03:47:51.966Z,14.03
2018-09-01T03:50:19.319Z,14.04
2018-09-01T03:52:46.617Z,13.97
2018-09-01T03:55:13.974Z,13.90
2018-09-01T03:57:41.364Z,13.96
2018-09-01T04:00:08.723Z,13.98
2018-09-01T04:02:36.154Z,13.94
2018-09-01T04:05:03.503Z,13.89
2018-09-01T04:07:30.735Z,13.85
2018-09-01T04:09:57.995Z,13.88
2018-09-01T04:12:25.246Z,13.85
2018-09-01T04:14:52.485Z,13.83
2018-09-01T04:17:19.749Z,13.77
2018-09-01T04:19:47.104Z,13.75
2018-09-01T04:22:14.353Z,13.73
2018-09-01T04:24:41.645Z,13.68
2018-09-01T04:27:09.009Z,13.65
2018-09-01T04:29:36.289Z,13.61
2018-09-01T04:32:03.657Z,13.58
2018-09-01T04:34:30.954Z,13.55
2018-09-01T04:36:58.242Z,13.54
2018-09-01T04:39:25.568Z,13.52
2018-09-01T04:41:52.852Z,13.48
2018-09-01T04:44:20.179Z,13.46
2018-09-01T04:46:47.553Z,13.43
2018-09-01T04:49:14.850Z,13.32
2018-09-01T04:51:42.118Z,13.32
2018-09-01T04:54:09.588Z,13.38
2018-09-01T04:56:36.888Z,13.23
2018-09-01T04:59:04.143Z,13.40
2018-09-01T05:01:31.496Z,13.37
2018-09-01T05:03:58.863Z,13.36
2018-09-01T05:06:26.080Z,13.40
2018-09-01T05:08:53.354Z,13.47
2018-09-01T05:11:20.632Z,13.46
2018-09-01T05:13:47.919Z,13.48
2018-09-01T05:16:15.245Z,13.47
2018-09-01T05:18:42.538Z,13.47
2018-09-01T05:21:09.834Z,13.47
2018-09-01T05:23:37.147Z,13.42
2018-09-01T05:26:04.443Z,13.38
2018-09-01T05:28:31.840Z,13.33
2018-09-01T05:30:59.110Z,13.36
2018-09-01T05:33:26.549Z,13.34
2018-09-01T05:35:53.791Z,13.38
2018-09-01T05:38:21.109Z,13.43
2018-09-01T05:40:48.439Z,13.50
2018-09-01T05:43:15.727Z,13.54
2018-09-01T05:45:42.988Z,13.70
2018-09-01T05:48:10.306Z,13.57
2018-09-01T05:50:37.557Z,13.61
2018-09-01T05:53:05.105Z,13.73
2018-09-01T05:55:32.385Z,13.87
2018-09-01T05:57:59.652Z,13.92
2018-09-01T06:00:26.956Z,14.04
2018-09-01T06:02:54.273Z,14.08
2018-09-01T06:05:21.766Z,13.98
2018-09-01T06:07:49.153Z,13.93
2018-09-01T06:10:16.459Z,14.02
2018-09-01T06:12:44.351Z,14.13
2018-09-01T06:15:11.691Z,14.20
2018-09-01T06:17:38.993Z,14.42
2018-09-01T06:20:06.394Z,14.59
2018-09-01T06:22:33.650Z,14.73
2018-09-01T06:25:01.167Z,14.79
2018-09-01T06:27:31.866Z,14.90
2018-09-01T06:29:59.211Z,15.15
2018-09-01T06:32:26.700Z,15.43
2018-09-01T06:34:53.992Z,15.50
2018-09-01T06:37:22.350Z,15.49
2018-09-01T06:39:49.725Z,15.49
2018-09-01T06:42:16.949Z,15.42
2018-09-01T06:44:44.206Z,15.34
2018-09-01T06:47:13.379Z,15.47
2018-09-01T06:49:40.672Z,15.53
2018-09-01T06:52:07.960Z,15.88
2018-09-01T06:54:35.203Z,16.13
2018-09-01T06:57:02.485Z,16.35
2018-09-01T06:59:29.714Z,16.36
2018-09-01T07:01:56.995Z,16.59
2018-09-01T07:04:24.288Z,16.98
2018-09-01T07:06:51.692Z,17.38
2018-09-01T07:09:18.982Z,17.92
2018-09-01T07:11:46.294Z,18.52
2018-09-01T07:14:13.583Z,19.04
2018-09-01T07:16:40.858Z,19.54
2018-09-01T07:19:08.072Z,19.91
2018-09-01T07:21:35.339Z,20.54
2018-09-01T07:24:02.652Z,20.87
2018-09-01T07:26:29.989Z,21.46
2018-09-01T07:28:57.224Z,21.52
2018-09-01T07:31:24.888Z,21.64
2018-09-01T07:33:51.748Z,21.92
2018-09-01T07:36:19.020Z,21.96
2018-09-01T07:38:46.343Z,22.12
2018-09-01T07:41:13.811Z,22.30
2018-09-01T07:43:41.123Z,22.52
2018-09-01T07:46:08.494Z,22.69
2018-09-01T07:48:35.868Z,23.01
2018-09-01T07:51:03.184Z,23.57
2018-09-01T07:53:30.476Z,23.88
2018-09-01T07:55:57.819Z,23.80
2018-09-01T07:58:25.348Z,23.30
2018-09-01T08:00:52.668Z,23.28
2018-09-01T08:03:19.927Z,23.59
2018-09-01T08:05:47.230Z,23.35
2018-09-01T08:08:14.558Z,22.93
2018-09-01T08:10:41.886Z,22.96
2018-09-01T08:13:09.327Z,22.71
2018-09-01T08:15:36.666Z,22.29
2018-09-01T08:18:04.400Z,22.16
2018-09-01T08:20:31.685Z,21.90
2018-09-01T08:22:59.113Z,21.94
2018-09-01T08:25:26.506Z,22.01
2018-09-01T08:27:53.899Z,21.84
2018-09-01T08:30:21.309Z,21.57
2018-09-01T08:32:48.588Z,21.71
2018-09-01T08:35:15.997Z,21.20
2018-09-01T08:37:43.292Z,21.18
2018-09-01T08:40:10.529Z,21.27
2018-09-01T08:42:37.765Z,21.52
2018-09-01T08:45:05.136Z,21.75
2018-09-01T08:47:32.421Z,21.82
2018-09-01T08:49:59.719Z,21.77
2018-09-01T08:52:27.280Z,21.79
2018-09-01T08:54:54.582Z,21.89
2018-09-01T08:57:21.896Z,22.23
2018-09-01T08:59:49.186Z,22.45
2018-09-01T09:02:16.573Z,22.28
2018-09-01T09:04:44.038Z,21.85
2018-09-01T09:07:11.348Z,22.07
2018-09-01T09:09:38.689Z,22.17
2018-09-01T09:12:05.956Z,22.38
2018-09-01T09:14:33.248Z,22.66
2018-09-01T09:17:00.524Z,22.91
2018-09-01T09:19:27.913Z,22.85
2018-09-01T09:21:55.259Z,22.97
2018-09-01T09:24:22.610Z,23.18
2018-09-01T09:26:49.863Z,23.21
2018-09-01T09:29:18.301Z,23.21
2018-09-01T09:31:46.776Z,23.39
2018-09-01T09:34:14.171Z,23.33
2018-09-01T09:36:41.464Z,23.04
2018-09-01T09:39:09.693Z,23.07
2018-09-01T09:41:37.076Z,23.34
2018-09-01T09:44:04.541Z,23.44
2018-09-01T09:46:31.782Z,23.50
2018-09-01T09:48:59.389Z,23.69
2018-09-01T09:51:26.611Z,23.96
2018-09-01T09:53:53.949Z,24.15
2018-09-01T09:56:21.279Z,24.23
2018-09-01T09:58:48.634Z,24.54
2018-09-01T10:01:46.621Z,24.68
2018-09-01T10:04:13.956Z,24.67
2018-09-01T10:06:41.246Z,24.44
2018-09-01T10:09:12.734Z,24.04
2018-09-01T10:11:40.909Z,24.33
2018-09-01T10:14:08.139Z,24.81
2018-09-01T10:16:35.404Z,24.67
2018-09-01T10:19:02.622Z,24.74
2018-09-01T10:21:29.938Z,25.09
2018-09-01T10:23:58.025Z,25.38
2018-09-01T10:26:25.348Z,25.39
2018-09-01T10:28:52.625Z,25.42
2018-09-01T10:31:20.049Z,25.71
2018-09-01T10:33:47.415Z,25.69
2018-09-01T10:36:14.786Z,25.71
2018-09-01T10:38:42.825Z,25.57
2018-09-01T10:41:10.240Z,25.16
2018-09-01T10:43:37.623Z,24.78
2018-09-01T10:46:09.885Z,24.81
2018-09-01T10:48:37.418Z,25.51
2018-09-01T10:51:04.998Z,25.91
2018-09-01T10:53:32.271Z,25.87
2018-09-01T10:55:59.850Z,25.70
2018-09-01T10:58:27.487Z,25.48
2018-09-01T11:00:54.723Z,25.58
2018-09-01T11:03:21.997Z,26.14
2018-09-01T11:05:49.336Z,26.72
2018-09-01T11:08:16.627Z,27.06
2018-09-01T11:10:43.926Z,27.21
2018-09-01T11:13:11.880Z,27.42
2018-09-01T11:15:39.172Z,26.07
2018-09-01T11:18:06.490Z,25.37
2018-09-01T11:20:33.781Z,25.04
2018-09-01T11:23:01.035Z,25.26
2018-09-01T11:25:28.423Z,25.63
2018-09-01T11:27:55.820Z,26.01
2018-09-01T11:30:23.052Z,26.28
2018-09-01T11:32:50.370Z,26.04
2018-09-01T11:35:17.671Z,25.31
2018-09-01T11:37:44.965Z,25.08
2018-09-01T11:40:12.206Z,24.54
2018-09-01T11:42:39.605Z,24.57
2018-09-01T11:45:06.838Z,24.39
2018-09-01T11:47:34.141Z,24.20
2018-09-01T11:50:01.553Z,24.24
2018-09-01T11:52:28.802Z,24.18
2018-09-01T11:54:57.024Z,24.50
2018-09-01T11:57:24.286Z,24.73
2018-09-01T11:59:51.592Z,24.96
2018-09-01T12:02:19.013Z,24.76
2018-09-01T12:04:46.301Z,25.16
2018-09-01T12:07:15.414Z,25.55
2018-09-01T12:09:42.759Z,25.87
2018-09-01T12:12:10.049Z,25.81
2018-09-01T12:14:37.318Z,25.98
2018-09-01T12:17:04.672Z,25.38
2018-09-01T12:19:32.425Z,25.79
2018-09-01T12:21:59.734Z,25.63
2018-09-01T12:24:26.995Z,25.20
2018-09-01T12:26:54.292Z,25.45
2018-09-01T12:29:21.535Z,25.40
2018-09-01T12:31:48.862Z,25.05
2018-09-01T12:34:16.134Z,24.52
2018-09-01T12:36:43.463Z,24.30
2018-09-01T12:39:10.710Z,23.76
2018-09-01T12:41:37.999Z,23.62
2018-09-01T12:44:05.316Z,23.61
2018-09-01T12:46:32.532Z,23.51
2018-09-01T12:48:59.837Z,23.62
2018-09-01T12:51:27.205Z,23.47
2018-09-01T12:53:54.522Z,23.38
2018-09-01T12:56:21.863Z,23.45
2018-09-01T12:58:49.195Z,23.48
2018-09-01T13:01:16.422Z,23.86
2018-09-01T13:03:43.726Z,24.59
2018-09-01T13:06:11.395Z,24.95
2018-09-01T13:08:38.666Z,25.53
2018-09-01T13:11:05.977Z,26.35
2018-09-01T13:13:33.232Z,26.44
2018-09-01T13:16:00.530Z,26.07
2018-09-01T13:18:27.872Z,25.95
2018-09-01T13:20:55.117Z,26.14
2018-09-01T13:23:22.426Z,25.54
2018-09-01T13:25:49.782Z,25.02
2018-09-01T13:28:17.154Z,24.89
2018-09-01T13:30:44.519Z,25.31
2018-09-01T13:33:11.837Z,25.63
2018-09-01T13:35:39.146Z,26.02
2018-09-01T13:38:06.516Z,25.48
2018-09-01T13:40:33.864Z,25.64
2018-09-01T13:43:01.189Z,26.34
2018-09-01T13:45:28.468Z,26.18
2018-09-01T13:47:55.773Z,25.90
2018-09-01T13:50:22.979Z,25.46
2018-09-01T13:52:50.337Z,25.16
2018-09-01T13:55:17.585Z,24.99
2018-09-01T13:57:44.884Z,25.23
2018-09-01T14:00:12.180Z,25.26
2018-09-01T14:02:39.445Z,25.61
2018-09-01T14:05:06.810Z,25.95
2018-09-01T14:07:34.075Z,25.67
2018-09-01T14:10:01.378Z,25.43
2018-09-01T14:12:28.671Z,25.79
2018-09-01T14:14:56.059Z,26.32
2018-09-01T14:17:23.264Z,26.41
2018-09-01T14:19:50.916Z,25.68
2018-09-01T14:22:18.171Z,25.15
2018-09-01T14:24:45.537Z,24.67
2018-09-01T14:27:13.218Z,24.24
2018-09-01T14:29:40.557Z,24.16
2018-09-01T14:32:07.873Z,23.97
2018-09-01T14:34:35.144Z,23.71
2018-09-01T14:37:02.429Z,23.85
2018-09-01T14:39:29.755Z,23.88
2018-09-01T14:41:57.140Z,23.94
2018-09-01T14:44:24.598Z,23.85
2018-09-01T14:46:52.021Z,24.41
2018-09-01T14:49:19.308Z,24.86
2018-09-01T14:51:46.856Z,24.95
2018-09-01T14:54:14.188Z,24.71
2018-09-01T14:56:41.518Z,24.50
2018-09-01T14:59:08.759Z,24.12
2018-09-01T15:01:36.016Z,23.85
2018-09-01T15:04:03.277Z,23.55
2018-09-01T15:06:30.567Z,23.48
2018-09-01T15:08:57.851Z,24.09
2018-09-01T15:11:25.178Z,24.10
2018-09-01T15:13:52.480Z,23.84
2018-09-01T15:16:19.833Z,23.88
2018-09-01T15:18:47.144Z,24.18
2018-09-01T15:21:14.414Z,24.08
2018-09-01T15:23:41.728Z,24.22
2018-09-01T15:26:08.986Z,25.02
2018-09-01T15:28:36.757Z,26.00
2018-09-01T15:31:03.996Z,26.72
2018-09-01T15:33:31.286Z,27.26
2018-09-01T15:35:58.542Z,27.70
2018-09-01T15:38:25.857Z,28.06
2018-09-01T15:40:53.254Z,28.07
2018-09-01T15:43:20.505Z,28.20
2018-09-01T15:45:47.766Z,28.19
2018-09-01T15:48:15.055Z,28.31
2018-09-01T15:50:42.457Z,28.44
2018-09-01T15:53:09.746Z,28.03
2018-09-01T15:55:37.090Z,27.63
2018-09-01T15:58:04.383Z,27.43
2018-09-01T16:00:31.709Z,27.44
2018-09-01T16:02:58.930Z,26.94
2018-09-01T16:05:26.196Z,26.84
2018-09-01T16:07:53.452Z,26.44
2018-09-01T16:10:20.810Z,26.37
2018-09-01T16:12:48.054Z,25.87
2018-09-01T16:15:15.311Z,25.61
2018-09-01T16:17:42.559Z,25.11
2018-09-01T16:20:09.802Z,24.90
2018-09-01T16:22:37.075Z,24.60
2018-09-01T16:25:04.418Z,24.38
2018-09-01T16:27:31.805Z,24.11
2018-09-01T16:29:59.058Z,23.90
2018-09-01T16:32:26.463Z,23.76
2018-09-01T16:34:53.750Z,23.45
2018-09-01T16:37:21.003Z,23.33
2018-09-01T16:39:48.281Z,23.07
2018-09-01T16:42:15.567Z,22.86
2018-09-01T16:44:42.954Z,22.76
2018-09-01T16:47:10.252Z,22.75
2018-09-01T16:49:37.612Z,22.56
2018-09-01T16:52:04.965Z,22.23
2018-09-01T16:54:32.145Z,22.20
2018-09-01T16:56:59.416Z,22.18
2018-09-01T16:59:26.702Z,21.99
2018-09-01T17:01:54.020Z,21.99
2018-09-01T17:04:21.313Z,21.95
2018-09-01T17:06:48.592Z,21.86
2018-09-01T17:09:15.989Z,21.85
2018-09-01T17:11:43.211Z,21.82
2018-09-01T17:14:10.464Z,21.67
2018-09-01T17:16:37.703Z,21.61
2018-09-01T17:19:05.289Z,21.59
2018-09-01T17:21:32.552Z,21.60
2018-09-01T17:23:59.920Z,21.59
2018-09-01T17:26:27.283Z,21.65
2018-09-01T17:28:54.640Z,21.49
2018-09-01T17:31:21.940Z,21.31
2018-09-01T17:33:49.393Z,21.28
2018-09-01T17:36:16.582Z,21.30
2018-09-01T17:38:43.847Z,21.20
2018-09-01T17:41:11.108Z,21.18
2018-09-01T17:43:38.451Z,21.22
2018-09-01T17:46:05.778Z,21.22
2018-09-01T17:48:33.021Z,21.11
2018-09-01T17:51:00.331Z,21.02
2018-09-01T17:53:27.702Z,20.81
2018-09-01T17:55:55.029Z,20.84
2018-09-01T17:58:22.334Z,20.85
2018-09-01T18:00:49.686Z,20.83
2018-09-01T18:03:16.909Z,20.87
2018-09-01T18:05:44.108Z,20.93
2018-09-01T18:08:11.342Z,20.78
2018-09-01T18:10:38.646Z,20.72
2018-09-01T18:13:06.068Z,20.66
2018-09-01T18:15:33.430Z,20.67
2018-09-01T18:18:00.757Z,20.74
2018-09-01T18:20:28.085Z,20.71
2018-09-01T18:22:55.365Z,20.50
2018-09-01T18:25:22.716Z,20.34
2018-09-01T18:27:49.991Z,20.35
2018-09-01T18:30:17.199Z,20.35
2018-09-01T18:32:44.496Z,20.37
2018-09-01T18:35:11.774Z,20.33
2018-09-01T18:37:39.104Z,20.32
2018-09-01T18:40:06.499Z,20.27
2018-09-01T18:42:33.849Z,20.15
2018-09-01T18:45:01.365Z,20.04
2018-09-01T18:47:28.772Z,20.02
2018-09-01T18:49:56.049Z,20.03
2018-09-01T18:52:23.473Z,19.97
2018-09-01T18:54:50.771Z,19.94
2018-09-01T18:57:18.054Z,19.95
2018-09-01T18:59:45.358Z,20.00
2018-09-01T19:02:12.607Z,19.93
2018-09-01T19:04:40.265Z,19.89
2018-09-01T19:07:07.503Z,19.96
2018-09-01T19:09:34.829Z,19.99
2018-09-01T19:12:02.075Z,20.04
2018-09-01T19:14:29.422Z,20.03
2018-09-01T19:16:56.731Z,19.98
2018-09-01T19:19:24.006Z,19.94
2018-09-01T19:21:51.293Z,19.89
2018-09-01T19:24:18.709Z,19.80
2018-09-01T19:26:46.450Z,19.69
2018-09-01T19:29:13.749Z,19.69
2018-09-01T19:31:41.056Z,19.61
2018-09-01T19:34:08.384Z,19.58
2018-09-01T19:36:35.693Z,19.61
2018-09-01T19:39:04.074Z,19.50
2018-09-01T19:41:31.289Z,19.54
2018-09-01T19:43:58.620Z,19.55
2018-09-01T19:46:25.875Z,19.55
2018-09-01T19:48:53.156Z,19.49
2018-09-01T19:51:20.547Z,19.41
2018-09-01T19:53:47.850Z,19.39
2018-09-01T19:56:15.154Z,19.32
2018-09-01T19:58:42.392Z,19.28
2018-09-01T20:01:09.687Z,19.21
2018-09-01T20:03:36.979Z,19.15
2018-09-01T20:06:04.932Z,19.09
2018-09-01T20:08:32.272Z,19.05
2018-09-01T20:10:59.572Z,19.01
2018-09-01T20:13:26.891Z,18.94
2018-09-01T20:15:54.200Z,18.92
2018-09-01T20:18:21.521Z,18.84
2018-09-01T20:20:48.874Z,18.81
2018-09-01T20:23:16.159Z,18.78
2018-09-01T20:25:43.410Z,18.74
2018-09-01T20:28:10.729Z,18.63
2018-09-01T20:30:38.012Z,18.56
2018-09-01T20:33:05.291Z,18.49
2018-09-01T20:35:38.216Z,18.45
2018-09-01T20:38:05.594Z,18.43
2018-09-01T20:40:32.868Z,18.40
2018-09-01T20:43:00.178Z,18.38
2018-09-01T20:45:27.397Z,18.41
2018-09-01T20:47:54.691Z,18.39
2018-09-01T20:50:21.979Z,18.34
2018-09-01T20:52:49.305Z,18.29
2018-09-01T20:55:16.653Z,18.26
2018-09-01T20:57:43.981Z,18.32
2018-09-01T21:00:11.281Z,18.25
2018-09-01T21:02:38.544Z,18.28
2018-09-01T21:05:05.891Z,18.23
2018-09-01T21:07:33.186Z,18.24
2018-09-01T21:10:00.543Z,18.19
2018-09-01T21:12:27.935Z,18.23
2018-09-01T21:14:55.269Z,18.24
2018-09-01T21:17:22.573Z,18.22
2018-09-01T21:19:49.814Z,18.19
2018-09-01T21:22:17.098Z,18.19
2018-09-01T21:24:44.399Z,18.21
2018-09-01T21:27:11.652Z,18.27
2018-09-01T21:29:39.034Z,18.32
2018-09-01T21:32:06.330Z,18.37
2018-09-01T21:34:33.619Z,18.38
2018-09-01T21:37:00.994Z,18.40
2018-09-01T21:39:28.248Z,18.41
2018-09-01T21:41:55.607Z,18.35
2018-09-01T21:44:22.812Z,18.34
2018-09-01T21:46:50.141Z,18.35
2018-09-01T21:49:17.433Z,18.31
2018-09-01T21:51:44.758Z,18.29
2018-09-01T21:54:12.088Z,18.24
2018-09-01T21:56:39.446Z,18.29
2018-09-01T21:59:06.794Z,18.29
2018-09-01T22:01:35.189Z,18.29
2018-09-01T22:04:02.470Z,18.24
2018-09-01T22:06:29.779Z,18.17
2018-09-01T22:08:57.049Z,18.18
2018-09-01T22:11:24.379Z,18.13
2018-09-01T22:13:51.805Z,18.11
2018-09-01T22:16:19.078Z,18.08
2018-09-01T22:18:46.460Z,18.11
2018-09-01T22:21:13.772Z,18.09
2018-09-01T22:23:41.062Z,18.08
2018-09-01T22:26:08.645Z,18.06
2018-09-01T22:28:36.278Z,18.07
2018-09-01T22:31:03.742Z,18.09
2018-09-01T22:33:30.931Z,18.09
2018-09-01T22:35:58.323Z,18.13
2018-09-01T22:38:25.652Z,18.11
2018-09-01T22:40:53.377Z,18.07
2018-09-01T22:43:20.671Z,18.03
2018-09-01T22:45:47.908Z,18.00
2018-09-01T22:48:15.207Z,18.05
2018-09-01T22:50:42.477Z,18.06
2018-09-01T22:53:09.756Z,18.08
2018-09-01T22:55:37.027Z,18.05
2018-09-01T22:58:04.368Z,18.05
2018-09-01T23:00:31.613Z,18.02
2018-09-01T23:02:58.873Z,17.96
2018-09-01T23:05:26.128Z,17.94
2018-09-01T23:07:53.390Z,17.91
2018-09-01T23:10:20.695Z,17.97
2018-09-01T23:12:48.074Z,17.92
2018-09-01T23:15:15.337Z,17.88
2018-09-01T23:17:42.610Z,17.91
2018-09-01T23:20:09.961Z,17.93
2018-09-01T23:22:37.243Z,17.96
2018-09-01T23:25:04.527Z,17.89
2018-09-01T23:27:31.904Z,17.92
2018-09-01T23:29:59.268Z,17.92
2018-09-01T23:32:26.630Z,17.90
2018-09-01T23:34:53.931Z,17.84
2018-09-01T23:37:21.212Z,17.84
2018-09-01T23:39:48.527Z,17.86
2018-09-01T23:42:15.895Z,17.91
2018-09-01T23:44:43.212Z,17.87
2018-09-01T23:47:10.560Z,17.81
2018-09-01T23:49:37.869Z,17.75
2018-09-01T23:52:05.117Z,17.79
2018-09-01T23:54:32.494Z,17.77
2018-09-01T23:56:59.802Z,17.78
2018-09-01T23:59:27.016Z,17.82
